createdAt,value
2023-03-22T00:01:27.009Z,95034.66
2023-03-22T00:03:53.634Z,95026.13
2023-03-22T00:06:20.370Z,95021.63
2023-03-22T00:08:49.561Z,95030.81
2023-03-22T00:11:16.159Z,95020.56
2023-03-22T00:13:42.716Z,95020.00
2023-03-22T00:16:09.863Z,95026.94
2023-03-22T00:18:36.858Z,95022.22
2023-03-22T00:21:03.654Z,95015.44
2023-03-22T00:23:30.309Z,95012.53
2023-03-22T00:25:57.179Z,95006.75
2023-03-22T00:28:24.539Z,95009.22
2023-03-22T00:30:56.426Z,95011.84
2023-03-22T00:33:23.339Z,95009.88
2023-03-22T00:35:55.096Z,95004.81
2023-03-22T00:38:27.394Z,94998.72
2023-03-22T00:41:09.290Z,95002.28
2023-03-22T00:43:35.826Z,94998.00
2023-03-22T00:46:02.702Z,95001.59
2023-03-22T00:48:29.330Z,94999.72
2023-03-22T00:50:55.880Z,94999.84
2023-03-22T00:53:22.375Z,94997.34
2023-03-22T00:55:48.916Z,95001.81
2023-03-22T00:58:15.393Z,94996.09
2023-03-22T01:00:42.164Z,94991.22
2023-03-22T01:03:08.893Z,94986.28
2023-03-22T01:05:35.586Z,94979.72
2023-03-22T01:08:05.847Z,94981.53
2023-03-22T01:10:32.190Z,94982.78
2023-03-22T01:12:59.665Z,94979.75
2023-03-22T01:15:26.554Z,94976.09
2023-03-22T01:17:53.153Z,94975.16
2023-03-22T01:20:19.962Z,94979.66
2023-03-22T01:22:46.484Z,94968.56
2023-03-22T01:25:15.389Z,94965.63
2023-03-22T01:27:41.860Z,94961.22
2023-03-22T01:30:09.282Z,94950.81
2023-03-22T01:32:36.931Z,94960.50
2023-03-22T01:35:05.176Z,94944.03
2023-03-22T01:37:31.776Z,94948.97
2023-03-22T01:39:58.435Z,94951.09
2023-03-22T01:42:26.237Z,94954.41
2023-03-22T01:45:14.358Z,94954.41
2023-03-22T01:47:42.806Z,94942.41
2023-03-22T01:50:09.671Z,94944.34
2023-03-22T01:52:36.834Z,94935.47
2023-03-22T01:55:04.717Z,94947.41
2023-03-22T01:57:31.249Z,94944.59
2023-03-22T01:59:57.722Z,94950.94
2023-03-22T02:02:24.283Z,94939.13
2023-03-22T02:04:51.054Z,94949.63
2023-03-22T02:07:18.870Z,94944.41
2023-03-22T02:09:45.396Z,94943.72
2023-03-22T02:12:40.999Z,94942.44
2023-03-22T02:15:23.106Z,94935.28
2023-03-22T02:18:19.024Z,94937.38
2023-03-22T02:20:56.156Z,94927.50
2023-03-22T02:23:36.890Z,94924.44
2023-03-22T02:26:20.390Z,94920.31
2023-03-22T02:28:53.045Z,94917.03
2023-03-22T02:31:38.391Z,94915.28
2023-03-22T02:34:23.743Z,94920.78
2023-03-22T02:37:23.245Z,94909.41
2023-03-22T02:39:55.826Z,94910.50
2023-03-22T02:42:27.557Z,94912.00
2023-03-22T02:45:20.560Z,94908.91
2023-03-22T02:48:25.567Z,94908.72
2023-03-22T02:50:58.951Z,94908.72
2023-03-22T02:53:33.572Z,94911.22
2023-03-22T02:56:13.622Z,94918.56
2023-03-22T02:58:54.692Z,94925.94
2023-03-22T03:01:25.032Z,94922.97
2023-03-22T03:03:54.279Z,94921.78
2023-03-22T03:06:22.998Z,94921.28
2023-03-22T03:08:50.222Z,94927.84
2023-03-22T03:11:17.135Z,94932.34
2023-03-22T03:13:46.720Z,94935.94
2023-03-22T03:16:13.626Z,94940.63
2023-03-22T03:19:08.981Z,94942.75
2023-03-22T03:21:47.523Z,94943.34
2023-03-22T03:24:26.880Z,94940.53
2023-03-22T03:26:56.299Z,94939.78
2023-03-22T03:29:29.290Z,94933.81
2023-03-22T03:32:18.951Z,94935.41
2023-03-22T03:35:13.095Z,94931.19
2023-03-22T03:37:49.608Z,94935.34
2023-03-22T03:40:33.927Z,94934.72
2023-03-22T03:43:03.556Z,94936.72
2023-03-22T03:45:30.448Z,94947.44
2023-03-22T03:48:04.785Z,94936.66
2023-03-22T03:50:31.657Z,94939.00
2023-03-22T03:52:58.520Z,94945.91
2023-03-22T03:55:26.201Z,94927.34
2023-03-22T03:57:52.732Z,94933.41
2023-03-22T04:00:19.839Z,94940.63
2023-03-22T04:02:46.372Z,94940.31
2023-03-22T04:05:13.603Z,94940.09
2023-03-22T04:07:40.259Z,94952.06
2023-03-22T04:10:07.543Z,94955.19
2023-03-22T04:12:34.116Z,94941.44
2023-03-22T04:15:00.693Z,94946.16
2023-03-22T04:17:27.289Z,94950.31
2023-03-22T04:19:53.764Z,94953.53
2023-03-22T04:22:20.279Z,94944.31
2023-03-22T04:24:46.777Z,94942.72
2023-03-22T04:27:13.282Z,94947.28
2023-03-22T04:29:39.788Z,94946.47
2023-03-22T04:32:06.312Z,94946.84
2023-03-22T04:34:32.804Z,94949.44
2023-03-22T04:36:59.360Z,94950.66
2023-03-22T04:39:25.875Z,94952.22
2023-03-22T04:41:54.970Z,94954.69
2023-03-22T04:44:21.488Z,94945.72
2023-03-22T04:46:47.977Z,94937.81
2023-03-22T04:49:14.506Z,94940.22
2023-03-22T04:51:41.001Z,94945.00
2023-03-22T04:54:07.557Z,94939.72
2023-03-22T04:56:34.070Z,94938.66
2023-03-22T04:59:00.683Z,94940.78
2023-03-22T05:01:27.279Z,94937.97
2023-03-22T05:03:53.802Z,94943.25
2023-03-22T05:06:20.305Z,94944.13
2023-03-22T05:08:46.866Z,94940.00
2023-03-22T05:11:15.998Z,94940.06
2023-03-22T05:13:43.059Z,94938.31
2023-03-22T05:16:10.505Z,94941.16
2023-03-22T05:18:37.245Z,94939.47
2023-03-22T05:21:03.920Z,94936.75
2023-03-22T05:23:30.421Z,94936.50
2023-03-22T05:25:57.420Z,94947.44
2023-03-22T05:28:24.630Z,94940.16
2023-03-22T05:30:51.122Z,94940.06
2023-03-22T05:33:17.899Z,94939.06
2023-03-22T05:35:44.553Z,94949.56
2023-03-22T05:38:11.102Z,94948.84
2023-03-22T05:40:38.206Z,94944.97
2023-03-22T05:43:04.904Z,94949.06
2023-03-22T05:45:31.423Z,94949.94
2023-03-22T05:47:58.380Z,94948.28
2023-03-22T05:50:24.923Z,94949.72
2023-03-22T05:52:51.583Z,94950.00
2023-03-22T05:55:18.501Z,94949.38
2023-03-22T05:57:46.312Z,94942.72
2023-03-22T06:00:15.135Z,94946.63
2023-03-22T06:02:46.911Z,94953.41
2023-03-22T06:05:15.486Z,94952.66
2023-03-22T06:07:42.412Z,94954.47
2023-03-22T06:10:12.343Z,94962.78
2023-03-22T06:12:39.103Z,94955.78
2023-03-22T06:15:06.171Z,94959.34
2023-03-22T06:17:32.749Z,94963.47
2023-03-22T06:19:59.356Z,94958.22
2023-03-22T06:22:26.030Z,94955.78
2023-03-22T06:24:52.573Z,94966.09
2023-03-22T06:27:19.068Z,94963.25
2023-03-22T06:29:45.559Z,94963.13
2023-03-22T06:32:12.946Z,94965.41
2023-03-22T06:34:39.537Z,94964.22
2023-03-22T06:37:06.107Z,94967.53
2023-03-22T06:39:33.939Z,94958.75
2023-03-22T06:42:00.465Z,94959.19
2023-03-22T06:44:28.471Z,94954.47
2023-03-22T06:46:57.489Z,94951.66
2023-03-22T06:49:24.005Z,94958.38
2023-03-22T06:51:50.644Z,94959.03
2023-03-22T06:54:17.154Z,94952.41
2023-03-22T06:56:43.697Z,94962.38
2023-03-22T06:59:10.245Z,94948.84
2023-03-22T07:01:36.832Z,94961.09
2023-03-22T07:04:03.738Z,94957.41
2023-03-22T07:06:30.262Z,94944.19
2023-03-22T07:08:56.768Z,94954.22
2023-03-22T07:11:23.378Z,94954.16
2023-03-22T07:13:49.909Z,94959.69
2023-03-22T07:16:19.368Z,94963.06
2023-03-22T07:18:46.633Z,94959.53
2023-03-22T07:21:13.201Z,94958.75
2023-03-22T07:23:39.760Z,94966.75
2023-03-22T07:26:06.555Z,94967.13
2023-03-22T07:28:33.439Z,94972.19
2023-03-22T07:31:05.755Z,94972.91
2023-03-22T07:33:32.382Z,94970.28
2023-03-22T07:35:59.383Z,94968.63
2023-03-22T07:38:25.960Z,94967.13
2023-03-22T07:40:53.440Z,94965.41
2023-03-22T07:43:20.738Z,94964.50
2023-03-22T07:45:49.647Z,94968.16
2023-03-22T07:48:17.185Z,94966.69
2023-03-22T07:50:43.798Z,94960.16
2023-03-22T07:53:10.728Z,94963.31
2023-03-22T07:55:42.876Z,94958.91
2023-03-22T07:58:09.428Z,94971.97
2023-03-22T08:00:36.230Z,94976.81
2023-03-22T08:03:02.859Z,94972.16
2023-03-22T08:05:29.393Z,94972.72
2023-03-22T08:07:55.965Z,94973.22
2023-03-22T08:10:22.488Z,94974.88
2023-03-22T08:12:49.153Z,94972.16
2023-03-22T08:15:15.779Z,94962.63
2023-03-22T08:17:42.580Z,94978.53
2023-03-22T08:20:09.642Z,94969.97
2023-03-22T08:22:36.613Z,94971.09
2023-03-22T08:25:04.343Z,94977.97
2023-03-22T08:27:30.994Z,94975.31
2023-03-22T08:29:57.743Z,94978.03
2023-03-22T08:32:24.588Z,94975.91
2023-03-22T08:34:51.162Z,94967.44
2023-03-22T08:37:18.828Z,94968.50
2023-03-22T08:39:45.371Z,94967.88
2023-03-22T08:42:13.458Z,94966.41
2023-03-22T08:44:40.154Z,94966.03
2023-03-22T08:47:09.644Z,94964.50
2023-03-22T08:49:36.268Z,94969.25
2023-03-22T08:52:09.013Z,94961.69
2023-03-22T08:54:35.554Z,94958.38
2023-03-22T08:57:02.050Z,94960.47
2023-03-22T08:59:28.711Z,94965.47
2023-03-22T09:01:55.385Z,94965.13
2023-03-22T09:04:22.008Z,94954.41
2023-03-22T09:06:48.569Z,94954.06
2023-03-22T09:09:15.161Z,94958.47
2023-03-22T09:11:41.675Z,94959.72
2023-03-22T09:14:09.467Z,94961.84
2023-03-22T09:16:36.028Z,94959.16
2023-03-22T09:19:02.581Z,94963.50
2023-03-22T09:21:29.136Z,94960.94
2023-03-22T09:23:56.357Z,94964.34
2023-03-22T09:26:23.009Z,94963.13
2023-03-22T09:28:49.667Z,94965.53
2023-03-22T09:31:18.518Z,94963.06
2023-03-22T09:33:46.308Z,94965.41
2023-03-22T09:36:12.829Z,94960.69
2023-03-22T09:38:40.001Z,94959.38
2023-03-22T09:41:08.759Z,94959.91
2023-03-22T09:43:40.658Z,94957.50
2023-03-22T09:46:13.549Z,94952.19
2023-03-22T09:48:42.411Z,94948.34
2023-03-22T09:51:20.771Z,94940.19
2023-03-22T09:53:48.341Z,94941.72
2023-03-22T09:56:24.306Z,94940.09
2023-03-22T09:58:55.381Z,94930.88
2023-03-22T10:01:44.726Z,94924.19
2023-03-22T10:04:34.183Z,94928.84
2023-03-22T10:07:25.716Z,94927.91
2023-03-22T10:10:07.541Z,94937.72
2023-03-22T10:13:01.015Z,94934.56
2023-03-22T10:15:35.662Z,94935.06
2023-03-22T10:18:06.388Z,94934.84
2023-03-22T10:20:59.368Z,94930.84
2023-03-22T10:23:30.962Z,94932.00
2023-03-22T10:25:59.002Z,94930.94
2023-03-22T10:28:31.279Z,94930.69
2023-03-22T10:30:58.797Z,94921.13
2023-03-22T10:33:43.014Z,94927.56
2023-03-22T10:36:13.871Z,94920.72
2023-03-22T10:38:53.227Z,94928.50
2023-03-22T10:41:21.022Z,94931.28
2023-03-22T10:43:53.601Z,94926.00
2023-03-22T10:46:22.913Z,94928.72
2023-03-22T10:48:51.526Z,94923.94
2023-03-22T10:51:26.334Z,94915.59
2023-03-22T10:53:55.154Z,94917.34
2023-03-22T10:56:22.038Z,94916.50
2023-03-22T10:58:49.585Z,94923.84
2023-03-22T11:01:30.622Z,94913.22
2023-03-22T11:04:16.555Z,94917.56
2023-03-22T11:06:52.718Z,94908.66
2023-03-22T11:09:22.122Z,94902.25
2023-03-22T11:11:53.639Z,94886.41
2023-03-22T11:14:25.281Z,94895.00
2023-03-22T11:17:22.843Z,94888.97
2023-03-22T11:19:58.890Z,94878.88
2023-03-22T11:22:33.861Z,94877.81
2023-03-22T11:25:00.827Z,94877.06
2023-03-22T11:27:30.014Z,94872.50
2023-03-22T11:30:21.147Z,94871.72
2023-03-22T11:32:47.917Z,94865.63
2023-03-22T11:35:25.344Z,94857.84
2023-03-22T11:37:53.547Z,94866.38
2023-03-22T11:40:24.797Z,94864.50
2023-03-22T11:42:56.531Z,94863.19
2023-03-22T11:45:33.238Z,94865.81
2023-03-22T11:48:06.405Z,94854.13
2023-03-22T11:50:36.811Z,94857.84
2023-03-22T11:53:04.890Z,94854.88
2023-03-22T11:55:31.960Z,94859.72
2023-03-22T11:57:58.532Z,94854.91
2023-03-22T12:00:27.211Z,94845.53
2023-03-22T12:03:07.136Z,94843.94
2023-03-22T12:05:33.981Z,94839.34
2023-03-22T12:08:04.192Z,94840.44
2023-03-22T12:10:39.010Z,94832.91
2023-03-22T12:13:14.185Z,94834.59
2023-03-22T12:15:42.777Z,94835.66
2023-03-22T12:18:17.772Z,94833.00
2023-03-22T12:20:49.454Z,94826.56
2023-03-22T12:23:19.650Z,94818.56
2023-03-22T12:26:12.192Z,94825.50
2023-03-22T12:28:43.560Z,94819.34
2023-03-22T12:31:14.815Z,94822.81
2023-03-22T12:33:47.698Z,94815.09
2023-03-22T12:36:37.547Z,94812.41
2023-03-22T12:39:06.628Z,94812.97
2023-03-22T12:41:39.714Z,94808.94
2023-03-22T12:44:27.712Z,94806.25
2023-03-22T12:47:12.663Z,94802.78
2023-03-22T12:50:11.511Z,94787.53
2023-03-22T12:52:45.877Z,94789.94
2023-03-22T12:55:24.687Z,94788.06
2023-03-22T12:57:51.666Z,94786.63
2023-03-22T13:00:19.128Z,94778.38
2023-03-22T13:03:02.972Z,94774.69
2023-03-22T13:05:33.514Z,94771.66
2023-03-22T13:08:00.539Z,94772.41
2023-03-22T13:10:29.765Z,94774.97
2023-03-22T13:13:21.055Z,94772.75
2023-03-22T13:16:09.140Z,94770.78
2023-03-22T13:18:35.794Z,94776.97
2023-03-22T13:21:12.194Z,94759.53
2023-03-22T13:24:01.845Z,94757.59
2023-03-22T13:26:57.834Z,94758.66
2023-03-22T13:29:35.625Z,94748.72
2023-03-22T13:32:05.343Z,94752.41
2023-03-22T13:34:46.646Z,94743.28
2023-03-22T13:37:32.210Z,94741.19
2023-03-22T13:39:58.903Z,94731.81
2023-03-22T13:42:32.482Z,94732.31
2023-03-22T13:45:00.200Z,94722.13
2023-03-22T13:47:35.790Z,94722.91
2023-03-22T13:50:26.740Z,94715.16
2023-03-22T13:53:19.478Z,94720.50
2023-03-22T13:55:48.880Z,94714.25
2023-03-22T13:58:30.419Z,94703.94
2023-03-22T14:00:57.523Z,94708.75
2023-03-22T14:03:29.164Z,94710.06
2023-03-22T14:06:15.659Z,94702.28
2023-03-22T14:08:43.825Z,94706.66
2023-03-22T14:11:26.797Z,94704.03
2023-03-22T14:14:03.844Z,94707.63
2023-03-22T14:16:49.257Z,94694.41
2023-03-22T14:19:22.316Z,94699.13
